sensor_id;sensor_type;location;lat;lon;timestamp;pressure;altitude;pressure_sealevel;temperature;humidity
71768;BME280;59604;52.138;5.446;2022-08-07T00:01:02;102888.97;;;14.80;70.23
71768;BME280;59604;52.138;5.446;2022-08-07T00:03:49;102890.47;;;14.74;70.68
71768;BME280;59604;52.138;5.446;2022-08-07T00:06:16;102893.75;;;14.68;70.97
71768;BME280;59604;52.138;5.446;2022-08-07T00:08:45;102893.59;;;14.61;71.31
71768;BME280;59604;52.138;5.446;2022-08-07T00:11:12;102886.47;;;14.62;71.06
71768;BME280;59604;52.138;5.446;2022-08-07T00:13:45;102885.81;;;14.60;71.32
71768;BME280;59604;52.138;5.446;2022-08-07T00:16:13;102883.97;;;14.60;71.19
71768;BME280;59604;52.138;5.446;2022-08-07T00:18:47;102884.97;;;14.59;71.29
71768;BME280;59604;52.138;5.446;2022-08-07T00:21:13;102877.16;;;14.58;71.65
71768;BME280;59604;52.138;5.446;2022-08-07T00:24:00;102872.84;;;14.48;71.77
71768;BME280;59604;52.138;5.446;2022-08-07T00:26:26;102880.78;;;14.48;71.91
71768;BME280;59604;52.138;5.446;2022-08-07T00:29:13;102876.50;;;14.47;71.06
71768;BME280;59604;52.138;5.446;2022-08-07T00:31:41;102872.34;;;14.45;71.79
71768;BME280;59604;52.138;5.446;2022-08-07T00:34:07;102867.47;;;14.32;72.28
71768;BME280;59604;52.138;5.446;2022-08-07T00:36:36;102868.31;;;14.24;72.97
71768;BME280;59604;52.138;5.446;2022-08-07T00:39:04;102860.19;;;14.18;73.14
71768;BME280;59604;52.138;5.446;2022-08-07T00:41:31;102862.34;;;14.22;72.89
71768;BME280;59604;52.138;5.446;2022-08-07T00:44:10;102857.69;;;14.24;72.71
71768;BME280;59604;52.138;5.446;2022-08-07T00:46:40;102854.22;;;14.24;72.74
71768;BME280;59604;52.138;5.446;2022-08-07T00:49:08;102860.53;;;14.23;72.68
71768;BME280;59604;52.138;5.446;2022-08-07T00:51:50;102854.53;;;14.21;72.57
71768;BME280;59604;52.138;5.446;2022-08-07T00:54:24;102858.50;;;14.17;72.84
71768;BME280;59604;52.138;5.446;2022-08-07T00:56:51;102860.50;;;14.07;73.24
71768;BME280;59604;52.138;5.446;2022-08-07T00:59:18;102847.06;;;14.00;73.61
71768;BME280;59604;52.138;5.446;2022-08-07T01:02:05;102855.44;;;13.87;74.19
71768;BME280;59604;52.138;5.446;2022-08-07T01:04:52;102853.91;;;13.76;74.61
71768;BME280;59604;52.138;5.446;2022-08-07T01:07:23;102849.53;;;13.59;75.24
71768;BME280;59604;52.138;5.446;2022-08-07T01:09:53;102845.38;;;13.57;75.24
71768;BME280;59604;52.138;5.446;2022-08-07T01:12:32;102847.19;;;13.56;74.86
71768;BME280;59604;52.138;5.446;2022-08-07T01:15:00;102846.91;;;13.59;74.92
71768;BME280;59604;52.138;5.446;2022-08-07T01:17:30;102845.06;;;13.60;74.73
71768;BME280;59604;52.138;5.446;2022-08-07T01:20:09;102844.56;;;13.56;74.71
71768;BME280;59604;52.138;5.446;2022-08-07T01:22:43;102845.91;;;13.60;74.76
71768;BME280;59604;52.138;5.446;2022-08-07T01:25:19;102845.41;;;13.65;74.47
71768;BME280;59604;52.138;5.446;2022-08-07T01:28:06;102847.06;;;13.66;74.48
71768;BME280;59604;52.138;5.446;2022-08-07T01:30:37;102839.13;;;13.66;74.46
71768;BME280;59604;52.138;5.446;2022-08-07T01:33:07;102846.09;;;13.67;74.46
71768;BME280;59604;52.138;5.446;2022-08-07T01:35:34;102845.94;;;13.68;74.27
71768;BME280;59604;52.138;5.446;2022-08-07T01:38:20;102840.63;;;13.68;74.61
71768;BME280;59604;52.138;5.446;2022-08-07T01:40:53;102844.28;;;13.67;74.73
71768;BME280;59604;52.138;5.446;2022-08-07T01:43:22;102844.91;;;13.61;74.86
71768;BME280;59604;52.138;5.446;2022-08-07T01:45:52;102842.41;;;13.60;74.97
71768;BME280;59604;52.138;5.446;2022-08-07T01:48:20;102828.34;;;13.59;75.42
71768;BME280;59604;52.138;5.446;2022-08-07T01:51:04;102832.81;;;13.59;75.31
71768;BME280;59604;52.138;5.446;2022-08-07T01:53:55;102828.34;;;13.59;75.54
71768;BME280;59604;52.138;5.446;2022-08-07T01:56:51;102827.84;;;13.56;75.66
71768;BME280;59604;52.138;5.446;2022-08-07T01:59:26;102832.44;;;13.53;76.25
71768;BME280;59604;52.138;5.446;2022-08-07T02:02:06;102827.47;;;13.50;76.22
71768;BME280;59604;52.138;5.446;2022-08-07T02:04:48;102831.28;;;13.48;76.47
71768;BME280;59604;52.138;5.446;2022-08-07T02:07:24;102829.59;;;13.47;76.37
71768;BME280;59604;52.138;5.446;2022-08-07T02:10:12;102833.94;;;13.48;76.52
71768;BME280;59604;52.138;5.446;2022-08-07T02:12:41;102829.47;;;13.48;76.21
71768;BME280;59604;52.138;5.446;2022-08-07T02:15:12;102826.00;;;13.48;76.04
71768;BME280;59604;52.138;5.446;2022-08-07T02:17:42;102832.56;;;13.44;75.91
71768;BME280;59604;52.138;5.446;2022-08-07T02:20:15;102824.97;;;13.41;76.01
71768;BME280;59604;52.138;5.446;2022-08-07T02:22:52;102828.56;;;13.40;76.03
71768;BME280;59604;52.138;5.446;2022-08-07T02:25:22;102823.97;;;13.42;75.72
71768;BME280;59604;52.138;5.446;2022-08-07T02:28:10;102826.59;;;13.42;75.92
71768;BME280;59604;52.138;5.446;2022-08-07T02:30:38;102817.03;;;13.41;75.75
71768;BME280;59604;52.138;5.446;2022-08-07T02:33:06;102817.47;;;13.36;75.83
71768;BME280;59604;52.138;5.446;2022-08-07T02:35:36;102826.50;;;13.25;76.50
71768;BME280;59604;52.138;5.446;2022-08-07T02:38:30;102817.91;;;13.23;76.19
71768;BME280;59604;52.138;5.446;2022-08-07T02:40:59;102814.41;;;13.23;76.08
71768;BME280;59604;52.138;5.446;2022-08-07T02:43:29;102816.09;;;13.24;76.31
71768;BME280;59604;52.138;5.446;2022-08-07T02:45:57;102821.50;;;13.22;76.46
71768;BME280;59604;52.138;5.446;2022-08-07T02:48:29;102822.97;;;13.17;76.92
71768;BME280;59604;52.138;5.446;2022-08-07T02:50:59;102820.63;;;13.14;76.49
71768;BME280;59604;52.138;5.446;2022-08-07T02:53:33;102820.78;;;13.12;76.50
71768;BME280;59604;52.138;5.446;2022-08-07T02:56:06;102816.50;;;13.11;76.47
71768;BME280;59604;52.138;5.446;2022-08-07T02:58:43;102820.09;;;13.10;76.96
71768;BME280;59604;52.138;5.446;2022-08-07T03:01:15;102821.25;;;13.08;76.94
71768;BME280;59604;52.138;5.446;2022-08-07T03:04:01;102815.13;;;13.07;77.13
71768;BME280;59604;52.138;5.446;2022-08-07T03:06:33;102817.94;;;13.05;77.50
71768;BME280;59604;52.138;5.446;2022-08-07T03:09:02;102817.41;;;13.02;77.47
71768;BME280;59604;52.138;5.446;2022-08-07T03:11:30;102812.94;;;13.02;77.72
71768;BME280;59604;52.138;5.446;2022-08-07T03:14:04;102805.31;;;12.99;77.61
71768;BME280;59604;52.138;5.446;2022-08-07T03:16:32;102806.78;;;12.94;77.78
71768;BME280;59604;52.138;5.446;2022-08-07T03:19:00;102807.91;;;12.91;77.76
71768;BME280;59604;52.138;5.446;2022-08-07T03:21:27;102806.09;;;12.92;77.82
71768;BME280;59604;52.138;5.446;2022-08-07T03:23:59;102816.53;;;12.93;77.41
71768;BME280;59604;52.138;5.446;2022-08-07T03:26:47;102813.19;;;12.91;77.84
71768;BME280;59604;52.138;5.446;2022-08-07T03:29:26;102807.91;;;12.91;78.17
71768;BME280;59604;52.138;5.446;2022-08-07T03:31:54;102806.91;;;12.92;78.34
71768;BME280;59604;52.138;5.446;2022-08-07T03:34:22;102808.06;;;12.90;78.30
71768;BME280;59604;52.138;5.446;2022-08-07T03:36:53;102810.72;;;12.90;78.78
71768;BME280;59604;52.138;5.446;2022-08-07T03:39:24;102809.06;;;12.89;78.81
71768;BME280;59604;52.138;5.446;2022-08-07T03:42:14;102807.56;;;12.86;78.21
71768;BME280;59604;52.138;5.446;2022-08-07T03:44:41;102806.03;;;12.84;78.33
71768;BME280;59604;52.138;5.446;2022-08-07T03:47:19;102808.69;;;12.84;78.06
71768;BME280;59604;52.138;5.446;2022-08-07T03:49:48;102797.44;;;12.81;78.18
71768;BME280;59604;52.138;5.446;2022-08-07T03:52:21;102800.91;;;12.82;78.35
71768;BME280;59604;52.138;5.446;2022-08-07T03:54:53;102800.09;;;12.81;78.37
71768;BME280;59604;52.138;5.446;2022-08-07T03:57:32;102810.81;;;12.80;78.18
71768;BME280;59604;52.138;5.446;2022-08-07T04:00:19;102806.63;;;12.77;78.76
71768;BME280;59604;52.138;5.446;2022-08-07T04:02:55;102803.16;;;12.77;79.00
71768;BME280;59604;52.138;5.446;2022-08-07T04:05:22;102803.69;;;12.80;79.00
71768;BME280;59604;52.138;5.446;2022-08-07T04:08:05;102808.16;;;12.80;78.80
71768;BME280;59604;52.138;5.446;2022-08-07T04:10:32;102807.63;;;12.76;79.41
71768;BME280;59604;52.138;5.446;2022-08-07T04:13:04;102809.63;;;12.74;79.25
71768;BME280;59604;52.138;5.446;2022-08-07T04:15:41;102807.09;;;12.73;79.32
71768;BME280;59604;52.138;5.446;2022-08-07T04:18:12;102809.38;;;12.68;79.74
71768;BME280;59604;52.138;5.446;2022-08-07T04:20:59;102810.81;;;12.62;79.84
71768;BME280;59604;52.138;5.446;2022-08-07T04:23:27;102809.16;;;12.61;80.27
71768;BME280;59604;52.138;5.446;2022-08-07T04:26:14;102820.97;;;12.49;80.42
71768;BME280;59604;52.138;5.446;2022-08-07T04:28:47;102812.75;;;12.34;80.36
71768;BME280;59604;52.138;5.446;2022-08-07T04:31:14;102818.66;;;12.18;80.11
71768;BME280;59604;52.138;5.446;2022-08-07T04:33:45;102817.94;;;12.08;80.25
71768;BME280;59604;52.138;5.446;2022-08-07T04:36:20;102819.13;;;12.14;80.36
71768;BME280;59604;52.138;5.446;2022-08-07T04:38:51;102824.88;;;12.27;79.62
71768;BME280;59604;52.138;5.446;2022-08-07T04:41:18;102824.66;;;12.38;79.54
71768;BME280;59604;52.138;5.446;2022-08-07T04:43:45;102824.03;;;12.44;79.05
71768;BME280;59604;52.138;5.446;2022-08-07T04:49:54;102825.63;;;12.55;78.40
71768;BME280;59604;52.138;5.446;2022-08-07T04:52:35;102827.84;;;12.60;78.38
71768;BME280;59604;52.138;5.446;2022-08-07T04:58:25;102830.38;;;12.69;78.14
71768;BME280;59604;52.138;5.446;2022-08-07T05:01:21;102829.78;;;12.75;77.96
71768;BME280;59604;52.138;5.446;2022-08-07T05:04:30;102830.31;;;12.79;78.14
71768;BME280;59604;52.138;5.446;2022-08-07T05:07:18;102825.53;;;12.82;78.37
71768;BME280;59604;52.138;5.446;2022-08-07T05:10:11;102827.06;;;12.85;78.13
71768;BME280;59604;52.138;5.446;2022-08-07T05:12:44;102828.41;;;12.89;78.28
71768;BME280;59604;52.138;5.446;2022-08-07T05:15:28;102833.38;;;12.92;78.34
71768;BME280;59604;52.138;5.446;2022-08-07T05:17:58;102830.72;;;12.92;78.72
71768;BME280;59604;52.138;5.446;2022-08-07T05:20:42;102837.81;;;12.92;78.94
71768;BME280;59604;52.138;5.446;2022-08-07T05:23:13;102835.19;;;12.92;79.41
71768;BME280;59604;52.138;5.446;2022-08-07T05:25:42;102833.06;;;12.95;79.48
71768;BME280;59604;52.138;5.446;2022-08-07T05:28:30;102835.91;;;13.02;79.17
71768;BME280;59604;52.138;5.446;2022-08-07T05:31:00;102843.25;;;13.08;79.13
71768;BME280;59604;52.138;5.446;2022-08-07T05:33:30;102831.50;;;13.11;78.99
71768;BME280;59604;52.138;5.446;2022-08-07T05:36:03;102845.13;;;13.16;79.47
71768;BME280;59604;52.138;5.446;2022-08-07T05:38:38;102843.81;;;13.20;79.86
71768;BME280;59604;52.138;5.446;2022-08-07T05:41:25;102835.81;;;13.29;79.29
71768;BME280;59604;52.138;5.446;2022-08-07T05:44:12;102837.69;;;13.37;79.32
71768;BME280;59604;52.138;5.446;2022-08-07T05:46:41;102833.41;;;13.44;79.36
71768;BME280;59604;52.138;5.446;2022-08-07T05:49:08;102824.00;;;13.50;78.95
71768;BME280;59604;52.138;5.446;2022-08-07T05:51:40;102831.16;;;13.58;78.52
71768;BME280;59604;52.138;5.446;2022-08-07T05:54:08;102825.75;;;13.67;78.99
71768;BME280;59604;52.138;5.446;2022-08-07T05:56:55;102828.06;;;13.70;79.37
71768;BME280;59604;52.138;5.446;2022-08-07T05:59:24;102836.16;;;13.69;79.45
71768;BME280;59604;52.138;5.446;2022-08-07T06:01:53;102842.78;;;13.73;78.75
71768;BME280;59604;52.138;5.446;2022-08-07T06:04:23;102846.16;;;13.83;79.15
71768;BME280;59604;52.138;5.446;2022-08-07T06:06:57;102858.59;;;13.91;79.04
71768;BME280;59604;52.138;5.446;2022-08-07T06:09:29;102855.31;;;13.97;78.88
71768;BME280;59604;52.138;5.446;2022-08-07T06:12:17;102849.03;;;14.06;78.26
71768;BME280;59604;52.138;5.446;2022-08-07T06:14:47;102841.44;;;14.11;77.73
71768;BME280;59604;52.138;5.446;2022-08-07T06:17:16;102841.47;;;14.19;77.67
71768;BME280;59604;52.138;5.446;2022-08-07T06:19:48;102840.00;;;14.25;75.89
71768;BME280;59604;52.138;5.446;2022-08-07T06:22:30;102836.03;;;14.37;76.29
71768;BME280;59604;52.138;5.446;2022-08-07T06:25:04;102849.78;;;14.49;74.62
71768;BME280;59604;52.138;5.446;2022-08-07T06:27:35;102836.56;;;14.57;75.15
71768;BME280;59604;52.138;5.446;2022-08-07T06:30:22;102843.38;;;14.68;74.45
71768;BME280;59604;52.138;5.446;2022-08-07T06:33:03;102841.38;;;14.78;73.84
71768;BME280;59604;52.138;5.446;2022-08-07T06:35:41;102846.69;;;14.86;74.38
71768;BME280;59604;52.138;5.446;2022-08-07T06:38:27;102845.50;;;14.97;74.14
71768;BME280;59604;52.138;5.446;2022-08-07T06:40:57;102850.97;;;15.04;74.04
71768;BME280;59604;52.138;5.446;2022-08-07T06:43:27;102849.97;;;15.13;73.52
71768;BME280;59604;52.138;5.446;2022-08-07T06:46:05;102841.50;;;15.26;72.76
71768;BME280;59604;52.138;5.446;2022-08-07T06:48:37;102837.66;;;15.36;71.61
71768;BME280;59604;52.138;5.446;2022-08-07T06:51:15;102844.25;;;15.49;71.89
71768;BME280;59604;52.138;5.446;2022-08-07T06:54:00;102838.88;;;15.65;71.40
71768;BME280;59604;52.138;5.446;2022-08-07T06:56:52;102833.72;;;15.80;71.53
71768;BME280;59604;52.138;5.446;2022-08-07T06:59:24;102844.94;;;15.90;70.66
71768;BME280;59604;52.138;5.446;2022-08-07T07:02:16;102842.53;;;16.03;70.12
71768;BME280;59604;52.138;5.446;2022-08-07T07:05:04;102839.16;;;16.17;69.35
71768;BME280;59604;52.138;5.446;2022-08-07T07:07:31;102837.91;;;16.28;68.50
71768;BME280;59604;52.138;5.446;2022-08-07T07:10:29;102842.81;;;16.39;69.27
71768;BME280;59604;52.138;5.446;2022-08-07T07:13:02;102839.16;;;16.40;68.13
71768;BME280;59604;52.138;5.446;2022-08-07T07:15:40;102844.06;;;16.52;67.72
71768;BME280;59604;52.138;5.446;2022-08-07T07:18:37;102844.28;;;16.65;67.87
71768;BME280;59604;52.138;5.446;2022-08-07T07:21:21;102852.50;;;16.78;66.76
71768;BME280;59604;52.138;5.446;2022-08-07T07:24:06;102855.47;;;16.83;64.71
71768;BME280;59604;52.138;5.446;2022-08-07T07:26:39;102848.13;;;16.85;65.22
71768;BME280;59604;52.138;5.446;2022-08-07T07:29:23;102868.16;;;16.96;65.71
71768;BME280;59604;52.138;5.446;2022-08-07T07:32:12;102856.50;;;16.97;64.11
71768;BME280;59604;52.138;5.446;2022-08-07T07:34:44;102852.75;;;17.06;63.91
71768;BME280;59604;52.138;5.446;2022-08-07T07:37:13;102857.44;;;17.19;64.34
71768;BME280;59604;52.138;5.446;2022-08-07T07:40:04;102851.22;;;17.27;62.88
71768;BME280;59604;52.138;5.446;2022-08-07T07:42:42;102850.69;;;17.31;61.01
71768;BME280;59604;52.138;5.446;2022-08-07T07:45:17;102856.00;;;17.31;60.86
71768;BME280;59604;52.138;5.446;2022-08-07T07:47:49;102851.16;;;17.35;61.29
71768;BME280;59604;52.138;5.446;2022-08-07T07:50:20;102846.06;;;17.40;61.54
71768;BME280;59604;52.138;5.446;2022-08-07T07:53:06;102834.34;;;17.49;61.03
71768;BME280;59604;52.138;5.446;2022-08-07T07:55:56;102837.47;;;17.53;61.76
71768;BME280;59604;52.138;5.446;2022-08-07T07:58:32;102832.84;;;17.61;62.75
71768;BME280;59604;52.138;5.446;2022-08-07T08:01:08;102838.78;;;17.63;61.73
71768;BME280;59604;52.138;5.446;2022-08-07T08:03:57;102834.94;;;17.66;61.58
71768;BME280;59604;52.138;5.446;2022-08-07T08:06:37;102827.69;;;17.75;61.46
71768;BME280;59604;52.138;5.446;2022-08-07T08:09:18;102816.75;;;17.84;61.88
71768;BME280;59604;52.138;5.446;2022-08-07T08:11:51;102822.25;;;17.98;61.20
71768;BME280;59604;52.138;5.446;2022-08-07T08:14:32;102819.44;;;18.06;61.38
71768;BME280;59604;52.138;5.446;2022-08-07T08:17:04;102829.47;;;18.04;60.66
71768;BME280;59604;52.138;5.446;2022-08-07T08:19:59;102824.53;;;18.01;59.99
71768;BME280;59604;52.138;5.446;2022-08-07T08:22:48;102824.13;;;18.04;61.18
71768;BME280;59604;52.138;5.446;2022-08-07T08:25:37;102823.22;;;18.12;59.31
71768;BME280;59604;52.138;5.446;2022-08-07T08:28:30;102823.47;;;18.17;58.66
71768;BME280;59604;52.138;5.446;2022-08-07T08:31:09;102816.53;;;18.22;57.73
71768;BME280;59604;52.138;5.446;2022-08-07T08:33:42;102817.63;;;18.28;56.67
71768;BME280;59604;52.138;5.446;2022-08-07T08:36:25;102810.44;;;18.28;56.62
71768;BME280;59604;52.138;5.446;2022-08-07T08:38:56;102813.47;;;18.25;56.61
71768;BME280;59604;52.138;5.446;2022-08-07T08:44:37;102806.56;;;18.31;57.65
71768;BME280;59604;52.138;5.446;2022-08-07T08:47:37;102811.78;;;18.39;57.12
71768;BME280;59604;52.138;5.446;2022-08-07T08:50:31;102805.03;;;18.43;56.17
71768;BME280;59604;52.138;5.446;2022-08-07T08:55:57;102806.22;;;18.62;56.94
71768;BME280;59604;52.138;5.446;2022-08-07T08:58:33;102811.81;;;18.67;57.14
71768;BME280;59604;52.138;5.446;2022-08-07T09:01:11;102805.53;;;18.75;57.22
71768;BME280;59604;52.138;5.446;2022-08-07T09:04:16;102807.41;;;18.81;57.26
71768;BME280;59604;52.138;5.446;2022-08-07T09:09:42;102800.59;;;19.06;55.98
71768;BME280;59604;52.138;5.446;2022-08-07T09:30:08;102801.16;;;19.37;52.10
71768;BME280;59604;52.138;5.446;2022-08-07T09:36:13;102792.03;;;19.59;53.87
71768;BME280;59604;52.138;5.446;2022-08-07T09:38:50;102790.47;;;19.78;52.87
71768;BME280;59604;52.138;5.446;2022-08-07T09:41:42;102781.84;;;19.83;52.44
71768;BME280;59604;52.138;5.446;2022-08-07T09:53:00;102786.84;;;20.32;49.06
71768;BME280;59604;52.138;5.446;2022-08-07T10:01:45;102770.00;;;20.45;50.01
71768;BME280;59604;52.138;5.446;2022-08-07T10:10:50;102762.13;;;20.96;47.97
71768;BME280;59604;52.138;5.446;2022-08-07T10:17:20;102751.13;;;21.25;48.11
71768;BME280;59604;52.138;5.446;2022-08-07T10:19:51;102752.03;;;21.50;47.47
71768;BME280;59604;52.138;5.446;2022-08-07T10:28:23;102745.28;;;21.79;45.15
71768;BME280;59604;52.138;5.446;2022-08-07T10:42:41;102724.88;;;22.53;43.78
71768;BME280;59604;52.138;5.446;2022-08-07T10:45:46;102730.06;;;22.55;44.35
71768;BME280;59604;52.138;5.446;2022-08-07T10:48:35;102729.75;;;22.63;41.54
71768;BME280;59604;52.138;5.446;2022-08-07T10:51:09;102723.44;;;22.76;41.64
71768;BME280;59604;52.138;5.446;2022-08-07T10:54:07;102726.13;;;22.76;41.87
71768;BME280;59604;52.138;5.446;2022-08-07T10:57:05;102714.91;;;22.79;42.61
71768;BME280;59604;52.138;5.446;2022-08-07T11:08:38;102706.47;;;23.12;41.36
71768;BME280;59604;52.138;5.446;2022-08-07T11:14:26;102701.59;;;23.09;39.15
71768;BME280;59604;52.138;5.446;2022-08-07T11:20:20;102684.69;;;23.50;39.29
71768;BME280;59604;52.138;5.446;2022-08-07T11:26:18;102683.03;;;23.49;39.93
71768;BME280;59604;52.138;5.446;2022-08-07T11:29:03;102684.69;;;23.62;40.12
71768;BME280;59604;52.138;5.446;2022-08-07T11:31:59;102682.31;;;23.84;37.45
71768;BME280;59604;52.138;5.446;2022-08-07T11:34:54;102682.66;;;23.76;37.97
71768;BME280;59604;52.138;5.446;2022-08-07T11:40:55;102678.94;;;24.00;41.61
71768;BME280;59604;52.138;5.446;2022-08-07T11:44:23;102673.78;;;24.10;39.00
71768;BME280;59604;52.138;5.446;2022-08-07T11:49:46;102670.28;;;23.98;38.62
71768;BME280;59604;52.138;5.446;2022-08-07T11:59:26;102658.25;;;24.01;38.21
71768;BME280;59604;52.138;5.446;2022-08-07T12:02:32;102657.63;;;24.22;38.41
71768;BME280;59604;52.138;5.446;2022-08-07T12:05:28;102648.50;;;24.47;38.05
71768;BME280;59604;52.138;5.446;2022-08-07T12:08:36;102636.44;;;24.49;38.43
71768;BME280;59604;52.138;5.446;2022-08-07T12:11:26;102644.44;;;24.85;37.79
71768;BME280;59604;52.138;5.446;2022-08-07T12:14:20;102635.94;;;24.93;37.50
71768;BME280;59604;52.138;5.446;2022-08-07T12:16:55;102650.28;;;24.93;36.76
71768;BME280;59604;52.138;5.446;2022-08-07T12:22:40;102654.94;;;24.98;36.93
71768;BME280;59604;52.138;5.446;2022-08-07T12:25:38;102651.66;;;24.96;36.09
71768;BME280;59604;52.138;5.446;2022-08-07T12:28:46;102657.00;;;24.79;37.20
71768;BME280;59604;52.138;5.446;2022-08-07T12:31:30;102655.84;;;24.63;37.35
71768;BME280;59604;52.138;5.446;2022-08-07T12:34:21;102650.16;;;24.88;37.72
71768;BME280;59604;52.138;5.446;2022-08-07T12:36:52;102645.06;;;25.15;35.65
71768;BME280;59604;52.138;5.446;2022-08-07T12:39:23;102649.59;;;25.26;36.58
71768;BME280;59604;52.138;5.446;2022-08-07T12:42:13;102643.78;;;25.35;33.75
71768;BME280;59604;52.138;5.446;2022-08-07T12:44:44;102643.84;;;25.23;34.62
71768;BME280;59604;52.138;5.446;2022-08-07T12:50:28;102638.88;;;25.32;37.30
71768;BME280;59604;52.138;5.446;2022-08-07T12:53:21;102634.41;;;25.37;37.13
71768;BME280;59604;52.138;5.446;2022-08-07T12:56:06;102640.72;;;25.14;35.37
71768;BME280;59604;52.138;5.446;2022-08-07T12:58:39;102632.47;;;25.21;35.33
71768;BME280;59604;52.138;5.446;2022-08-07T13:06:45;102644.44;;;24.85;35.36
71768;BME280;59604;52.138;5.446;2022-08-07T13:13:00;102633.72;;;25.01;32.80
71768;BME280;59604;52.138;5.446;2022-08-07T13:15:48;102636.13;;;25.15;34.04
71768;BME280;59604;52.138;5.446;2022-08-07T13:21:08;102625.88;;;25.28;33.16
71768;BME280;59604;52.138;5.446;2022-08-07T13:23:46;102624.16;;;25.39;33.80
71768;BME280;59604;52.138;5.446;2022-08-07T13:26:34;102621.16;;;25.52;32.06
71768;BME280;59604;52.138;5.446;2022-08-07T13:29:28;102624.81;;;25.46;33.37
71768;BME280;59604;52.138;5.446;2022-08-07T13:32:09;102623.03;;;25.52;32.03
71768;BME280;59604;52.138;5.446;2022-08-07T13:35:11;102613.44;;;25.27;31.43
71768;BME280;59604;52.138;5.446;2022-08-07T13:40:31;102611.25;;;25.41;32.97
71768;BME280;59604;52.138;5.446;2022-08-07T13:43:11;102612.28;;;25.23;33.22
71768;BME280;59604;52.138;5.446;2022-08-07T13:45:45;102608.06;;;25.27;31.98
71768;BME280;59604;52.138;5.446;2022-08-07T13:48:36;102604.06;;;25.47;33.21
71768;BME280;59604;52.138;5.446;2022-08-07T13:51:05;102601.94;;;25.49;33.13
71768;BME280;59604;52.138;5.446;2022-08-07T13:53:59;102600.78;;;25.62;33.88
71768;BME280;59604;52.138;5.446;2022-08-07T13:56:29;102604.22;;;25.74;32.33
71768;BME280;59604;52.138;5.446;2022-08-07T13:59:11;102605.28;;;25.73;33.94
71768;BME280;59604;52.138;5.446;2022-08-07T14:01:50;102606.34;;;25.72;32.69
71768;BME280;59604;52.138;5.446;2022-08-07T14:04:31;102606.84;;;25.69;32.60
71768;BME280;59604;52.138;5.446;2022-08-07T14:07:05;102605.44;;;25.66;32.56
71768;BME280;59604;52.138;5.446;2022-08-07T14:09:35;102606.94;;;25.74;31.55
71768;BME280;59604;52.138;5.446;2022-08-07T14:12:33;102611.50;;;25.57;31.75
71768;BME280;59604;52.138;5.446;2022-08-07T14:15:16;102600.13;;;25.71;32.39
71768;BME280;59604;52.138;5.446;2022-08-07T14:17:51;102602.81;;;25.88;31.54
71768;BME280;59604;52.138;5.446;2022-08-07T14:20:42;102602.34;;;25.91;31.06
71768;BME280;59604;52.138;5.446;2022-08-07T14:23:27;102604.06;;;25.97;31.39
71768;BME280;59604;52.138;5.446;2022-08-07T14:26:22;102599.16;;;25.94;30.09
71768;BME280;59604;52.138;5.446;2022-08-07T14:29:00;102605.38;;;25.78;30.74
71768;BME280;59604;52.138;5.446;2022-08-07T14:31:50;102613.53;;;25.66;30.27
71768;BME280;59604;52.138;5.446;2022-08-07T14:34:23;102604.16;;;25.52;31.46
71768;BME280;59604;52.138;5.446;2022-08-07T14:36:57;102608.31;;;25.60;31.15
71768;BME280;59604;52.138;5.446;2022-08-07T14:39:31;102603.81;;;25.48;30.31
71768;BME280;59604;52.138;5.446;2022-08-07T14:42:25;102608.88;;;25.28;31.82
71768;BME280;59604;52.138;5.446;2022-08-07T14:45:02;102615.97;;;25.17;31.32
71768;BME280;59604;52.138;5.446;2022-08-07T14:47:50;102605.75;;;25.19;33.06
71768;BME280;59604;52.138;5.446;2022-08-07T14:50:49;102606.97;;;25.28;33.10
71768;BME280;59604;52.138;5.446;2022-08-07T14:53:19;102600.06;;;25.49;33.28
71768;BME280;59604;52.138;5.446;2022-08-07T14:56:08;102603.03;;;25.82;33.51
71768;BME280;59604;52.138;5.446;2022-08-07T14:58:42;102601.03;;;25.94;32.19
71768;BME280;59604;52.138;5.446;2022-08-07T15:01:27;102599.31;;;25.88;32.80
71768;BME280;59604;52.138;5.446;2022-08-07T15:04:16;102592.88;;;25.89;33.28
71768;BME280;59604;52.138;5.446;2022-08-07T15:06:46;102592.81;;;26.06;33.77
71768;BME280;59604;52.138;5.446;2022-08-07T15:09:15;102596.59;;;26.05;33.53
71768;BME280;59604;52.138;5.446;2022-08-07T15:12:08;102593.75;;;25.94;33.93
71768;BME280;59604;52.138;5.446;2022-08-07T15:15:02;102581.84;;;26.12;34.24
71768;BME280;59604;52.138;5.446;2022-08-07T15:17:36;102581.22;;;25.88;33.26
71768;BME280;59604;52.138;5.446;2022-08-07T15:20:23;102592.13;;;25.60;34.77
71768;BME280;59604;52.138;5.446;2022-08-07T15:23:01;102593.03;;;25.48;34.60
71768;BME280;59604;52.138;5.446;2022-08-07T15:25:53;102586.53;;;25.16;35.57
71768;BME280;59604;52.138;5.446;2022-08-07T15:28:22;102589.66;;;25.24;34.89
71768;BME280;59604;52.138;5.446;2022-08-07T15:31:09;102584.59;;;25.28;35.24
71768;BME280;59604;52.138;5.446;2022-08-07T15:33:59;102581.41;;;25.48;35.24
71768;BME280;59604;52.138;5.446;2022-08-07T15:36:36;102587.97;;;25.52;35.39
71768;BME280;59604;52.138;5.446;2022-08-07T15:39:25;102571.16;;;25.33;36.92
71768;BME280;59604;52.138;5.446;2022-08-07T15:45:30;102577.31;;;25.12;36.75
71768;BME280;59604;52.138;5.446;2022-08-07T15:48:30;102568.56;;;25.21;35.84
71768;BME280;59604;52.138;5.446;2022-08-07T15:51:05;102571.91;;;25.12;36.74
71768;BME280;59604;52.138;5.446;2022-08-07T15:53:41;102569.16;;;25.23;37.11
71768;BME280;59604;52.138;5.446;2022-08-07T15:56:22;102568.22;;;25.18;37.13
71768;BME280;59604;52.138;5.446;2022-08-07T15:58:59;102562.28;;;25.16;36.66
71768;BME280;59604;52.138;5.446;2022-08-07T16:01:32;102563.50;;;24.96;37.43
71768;BME280;59604;52.138;5.446;2022-08-07T16:04:12;102554.72;;;25.01;37.56
71768;BME280;59604;52.138;5.446;2022-08-07T16:06:57;102564.50;;;25.07;38.94